createdAt,value
2023-04-20T00:00:26.339Z,11.18
2023-04-20T00:02:54.246Z,11.75
2023-04-20T00:05:21.739Z,11.88
2023-04-20T00:07:49.008Z,12.30
2023-04-20T00:10:16.496Z,12.43
2023-04-20T00:12:43.752Z,11.90
2023-04-20T00:15:11.182Z,13.45
2023-04-20T00:17:39.871Z,13.45
2023-04-20T00:20:11.103Z,13.18
2023-04-20T00:22:38.356Z,13.10
2023-04-20T00:25:05.870Z,12.60
2023-04-20T00:27:33.145Z,12.35
2023-04-20T00:30:00.317Z,12.70
2023-04-20T00:32:28.719Z,12.82
2023-04-20T00:34:55.894Z,12.05
2023-04-20T00:37:25.768Z,12.43
2023-04-20T00:39:53.147Z,12.90
2023-04-20T00:42:20.499Z,12.45
2023-04-20T00:44:47.725Z,12.75
2023-04-20T00:47:14.879Z,13.10
2023-04-20T00:49:43.008Z,12.13
2023-04-20T00:52:10.294Z,11.90
2023-04-20T00:54:37.470Z,12.65
2023-04-20T00:57:05.231Z,13.10
2023-04-20T00:59:32.928Z,13.65
2023-04-20T01:02:00.207Z,13.70
2023-04-20T01:04:27.830Z,13.85
2023-04-20T01:06:55.179Z,13.70
2023-04-20T01:09:22.354Z,14.02
2023-04-20T01:11:49.530Z,14.60
2023-04-20T01:14:16.677Z,13.65
2023-04-20T01:16:45.138Z,15.00
2023-04-20T01:19:12.293Z,15.30
2023-04-20T01:21:39.469Z,17.63
2023-04-20T01:24:07.455Z,17.00
2023-04-20T01:26:34.697Z,17.40
2023-04-20T01:29:01.907Z,17.55
2023-04-20T01:31:29.103Z,17.27
2023-04-20T01:33:56.424Z,18.15
2023-04-20T01:36:23.916Z,18.40
2023-04-20T01:38:52.915Z,18.20
2023-04-20T01:41:20.217Z,18.08
2023-04-20T01:43:47.357Z,17.70
2023-04-20T01:46:14.592Z,17.48
2023-04-20T01:48:41.710Z,19.83
2023-04-20T01:51:09.777Z,18.17
2023-04-20T01:53:36.959Z,18.80
2023-04-20T01:56:04.301Z,18.00
2023-04-20T01:58:32.027Z,18.90
2023-04-20T02:01:01.363Z,17.70
2023-04-20T02:03:28.780Z,18.13
2023-04-20T02:05:56.291Z,18.95
2023-04-20T02:08:23.487Z,20.52
2023-04-20T02:10:50.801Z,19.88
2023-04-20T02:13:18.004Z,18.65
2023-04-20T02:15:45.483Z,20.25
2023-04-20T02:18:12.777Z,19.15
2023-04-20T02:20:39.967Z,18.77
2023-04-20T02:23:07.234Z,21.45
2023-04-20T02:25:34.336Z,21.88
2023-04-20T02:28:01.420Z,21.38
2023-04-20T02:30:28.576Z,21.55
2023-04-20T02:32:55.855Z,22.63
2023-04-20T02:35:23.362Z,23.75
2023-04-20T02:37:51.724Z,23.63
2023-04-20T02:40:18.867Z,24.05
2023-04-20T02:42:45.970Z,24.25
2023-04-20T02:45:13.274Z,24.40
2023-04-20T02:47:40.412Z,23.23
2023-04-20T02:50:08.716Z,24.77
2023-04-20T02:52:36.118Z,24.42
2023-04-20T02:55:03.380Z,26.10
2023-04-20T02:57:30.982Z,24.98
2023-04-20T02:59:58.087Z,24.40
2023-04-20T03:02:25.351Z,21.65
2023-04-20T03:04:52.720Z,21.63
2023-04-20T03:07:20.112Z,20.08
2023-04-20T03:09:47.251Z,20.92
2023-04-20T03:12:14.718Z,20.50
2023-04-20T03:14:41.923Z,19.35
2023-04-20T03:17:09.118Z,19.75
2023-04-20T03:19:37.052Z,18.90
2023-04-20T03:22:04.740Z,20.05
2023-04-20T03:24:31.886Z,19.13
2023-04-20T03:26:59.019Z,18.63
2023-04-20T03:29:26.183Z,18.58
2023-04-20T03:31:53.338Z,17.77
2023-04-20T03:34:20.515Z,18.38
2023-04-20T03:36:47.606Z,18.10
2023-04-20T03:39:14.826Z,18.90
2023-04-20T03:41:42.209Z,20.48
2023-04-20T03:44:09.456Z,21.73
2023-04-20T03:46:36.691Z,21.05
2023-04-20T03:49:03.864Z,21.65
2023-04-20T03:51:31.498Z,22.50
2023-04-20T03:53:58.725Z,23.98
2023-04-20T03:56:27.472Z,25.85
2023-04-20T03:58:54.631Z,24.95
2023-04-20T04:01:21.787Z,24.73
2023-04-20T04:03:48.986Z,25.25
2023-04-20T04:06:16.987Z,24.75
2023-04-20T04:08:44.092Z,25.90
2023-04-20T04:11:11.245Z,26.45
2023-04-20T04:13:38.390Z,25.92
2023-04-20T04:16:06.652Z,27.00
2023-04-20T04:18:33.826Z,25.85
2023-04-20T04:21:01.009Z,25.98
2023-04-20T04:23:28.199Z,28.52
2023-04-20T04:25:57.427Z,28.60
2023-04-20T04:28:24.608Z,28.08
2023-04-20T04:30:52.836Z,26.77
2023-04-20T04:33:20.672Z,26.80
2023-04-20T04:35:48.839Z,26.23
2023-04-20T04:38:16.037Z,27.75
2023-04-20T04:40:46.199Z,25.27
2023-04-20T04:43:13.363Z,22.30
2023-04-20T04:45:41.274Z,21.95
2023-04-20T04:48:12.526Z,18.58
2023-04-20T04:50:40.279Z,20.23
2023-04-20T04:53:07.935Z,19.27
2023-04-20T04:55:35.188Z,20.17
2023-04-20T04:58:02.924Z,18.80
2023-04-20T05:00:31.662Z,19.58
2023-04-20T05:02:59.178Z,19.27
2023-04-20T05:05:26.401Z,19.23
2023-04-20T05:07:53.545Z,18.67
2023-04-20T05:10:20.749Z,19.13
2023-04-20T05:12:49.016Z,18.25
2023-04-20T05:15:16.224Z,18.67
2023-04-20T05:17:43.546Z,16.70
2023-04-20T05:20:11.997Z,16.27
2023-04-20T05:22:39.159Z,17.20
2023-04-20T05:25:07.094Z,15.90
2023-04-20T05:27:34.756Z,17.50
2023-04-20T05:30:16.534Z,17.30
2023-04-20T05:32:50.180Z,17.55
2023-04-20T05:35:19.456Z,16.02
2023-04-20T05:37:47.897Z,16.52
2023-04-20T05:40:16.057Z,17.42
2023-04-20T05:42:43.269Z,16.13
2023-04-20T05:45:11.311Z,14.98
2023-04-20T05:47:38.421Z,15.75
2023-04-20T05:50:06.117Z,16.52
2023-04-20T05:52:33.631Z,15.77
2023-04-20T05:55:00.776Z,16.33
2023-04-20T05:57:27.899Z,15.90
2023-04-20T05:59:56.286Z,15.35
2023-04-20T06:02:23.504Z,16.40
2023-04-20T06:04:50.840Z,16.95
2023-04-20T06:07:18.011Z,17.80
2023-04-20T06:09:45.208Z,10.43
2023-04-20T06:12:12.524Z,18.25
2023-04-20T06:14:39.609Z,16.23
2023-04-20T06:17:06.703Z,17.25
2023-04-20T06:19:33.800Z,14.32
2023-04-20T06:22:01.266Z,19.17
2023-04-20T06:24:28.593Z,18.35
2023-04-20T06:26:55.820Z,20.75
2023-04-20T06:29:22.929Z,19.73
2023-04-20T06:31:50.312Z,15.02
2023-04-20T06:34:17.593Z,18.13
2023-04-20T06:36:44.789Z,19.70
2023-04-20T06:39:12.046Z,18.98
2023-04-20T06:41:39.438Z,19.27
2023-04-20T06:44:06.899Z,18.30
2023-04-20T06:46:34.199Z,18.48
2023-04-20T06:49:01.935Z,12.02
2023-04-20T06:51:29.719Z,18.73
2023-04-20T06:53:56.949Z,17.83
2023-04-20T06:56:24.073Z,14.18
2023-04-20T06:58:51.287Z,17.60
2023-04-20T07:01:18.475Z,18.45
2023-04-20T07:03:47.262Z,17.35
2023-04-20T07:06:15.792Z,17.20
2023-04-20T07:08:43.293Z,17.40
2023-04-20T07:11:10.430Z,16.48
2023-04-20T07:13:37.555Z,15.35
2023-04-20T07:16:04.945Z,12.73
2023-04-20T07:18:33.958Z,16.48
2023-04-20T07:21:02.438Z,17.33
2023-04-20T07:23:29.568Z,12.02
2023-04-20T07:25:56.994Z,14.55
2023-04-20T07:28:24.301Z,8.88
2023-04-20T07:30:51.549Z,16.10
2023-04-20T07:33:18.685Z,10.80
2023-04-20T07:35:46.025Z,15.13
2023-04-20T07:38:13.160Z,16.40
2023-04-20T07:40:40.292Z,13.20
2023-04-20T07:43:07.367Z,17.27
2023-04-20T07:45:34.845Z,12.68
2023-04-20T07:48:02.700Z,14.07
2023-04-20T07:50:29.910Z,17.90
2023-04-20T07:52:57.044Z,16.92
2023-04-20T07:55:24.210Z,16.08
2023-04-20T07:57:51.776Z,17.58
2023-04-20T08:00:19.557Z,14.57
2023-04-20T08:02:46.986Z,17.20
2023-04-20T08:05:14.736Z,14.48
2023-04-20T08:07:42.023Z,15.77
2023-04-20T08:10:10.649Z,17.27
2023-04-20T08:12:40.123Z,16.27
2023-04-20T08:15:08.121Z,36.95
2023-04-20T08:17:35.561Z,14.73
2023-04-20T08:20:05.006Z,15.55
2023-04-20T08:22:33.458Z,15.85
2023-04-20T08:25:00.639Z,15.55
2023-04-20T08:27:29.873Z,14.25
2023-04-20T08:29:57.260Z,15.45
2023-04-20T08:32:27.014Z,14.77
2023-04-20T08:34:54.395Z,15.40
2023-04-20T08:37:21.769Z,14.27
2023-04-20T08:39:48.911Z,14.25
2023-04-20T08:42:17.220Z,13.65
2023-04-20T08:44:44.361Z,12.52
2023-04-20T08:47:12.242Z,13.52
2023-04-20T08:49:39.968Z,14.75
2023-04-20T08:52:10.937Z,14.15
2023-04-20T08:54:45.838Z,13.05
2023-04-20T08:57:16.778Z,13.88
2023-04-20T08:59:44.058Z,13.57
2023-04-20T09:02:13.455Z,13.98
2023-04-20T09:04:41.768Z,12.90
2023-04-20T09:07:21.765Z,15.60
2023-04-20T09:09:59.564Z,14.88
2023-04-20T09:12:27.697Z,7.63
2023-04-20T09:14:55.088Z,13.52
2023-04-20T09:17:37.435Z,7.47
2023-04-20T09:20:05.584Z,14.57
2023-04-20T09:22:34.355Z,13.85
2023-04-20T09:25:12.650Z,7.40
2023-04-20T09:27:39.754Z,12.65
2023-04-20T09:30:07.990Z,12.88
2023-04-20T09:32:35.974Z,12.68
2023-04-20T09:35:04.285Z,12.35
2023-04-20T09:37:31.444Z,12.98
2023-04-20T09:40:00.690Z,12.15
2023-04-20T09:42:29.315Z,12.27
2023-04-20T09:44:57.383Z,12.45
2023-04-20T09:47:26.920Z,12.27
2023-04-20T09:49:54.952Z,11.07
2023-04-20T09:52:24.378Z,12.32
2023-04-20T09:54:52.090Z,12.27
2023-04-20T09:57:19.991Z,10.65
2023-04-20T09:59:47.911Z,11.18
2023-04-20T10:02:15.569Z,12.13
2023-04-20T10:04:59.762Z,10.38
2023-04-20T10:07:30.153Z,11.73
2023-04-20T10:10:05.187Z,10.85
2023-04-20T10:12:32.526Z,12.50
2023-04-20T10:15:01.521Z,9.68
2023-04-20T10:17:33.320Z,8.98
2023-04-20T10:20:00.546Z,11.63
2023-04-20T10:22:33.131Z,11.93
2023-04-20T10:25:01.524Z,10.02
2023-04-20T10:27:28.717Z,12.88
2023-04-20T10:29:55.980Z,9.98
2023-04-20T10:32:28.040Z,9.30
2023-04-20T10:35:05.182Z,7.35
2023-04-20T10:37:32.790Z,8.45
2023-04-20T10:40:00.700Z,9.20
2023-04-20T10:42:29.828Z,8.57
2023-04-20T10:44:57.036Z,6.38
2023-04-20T10:47:29.897Z,8.95
2023-04-20T10:50:08.237Z,9.07
2023-04-20T10:52:36.814Z,8.57
2023-04-20T10:55:05.327Z,10.93
2023-04-20T10:57:32.620Z,9.90
2023-04-20T11:00:00.388Z,9.70
2023-04-20T11:02:28.403Z,11.07
2023-04-20T11:05:01.248Z,11.65
2023-04-20T11:07:28.488Z,10.95
2023-04-20T11:09:56.787Z,11.82
2023-04-20T11:12:24.076Z,12.43
2023-04-20T11:14:58.130Z,10.93
2023-04-20T11:17:35.384Z,9.15
2023-04-20T11:20:14.629Z,11.98
2023-04-20T11:22:43.224Z,10.75
2023-04-20T11:25:12.836Z,5.80
2023-04-20T11:27:41.157Z,12.55
2023-04-20T11:30:10.165Z,12.70
2023-04-20T11:32:38.627Z,12.30
2023-04-20T11:35:08.335Z,10.35
2023-04-20T11:37:47.451Z,10.98
2023-04-20T11:40:15.290Z,11.18
2023-04-20T11:42:42.807Z,13.15
2023-04-20T11:45:11.862Z,11.30
2023-04-20T11:47:41.295Z,10.93
2023-04-20T11:50:10.639Z,12.02
2023-04-20T11:52:37.898Z,13.27
2023-04-20T11:55:05.615Z,9.65
2023-04-20T11:57:32.910Z,13.48
2023-04-20T12:00:00.171Z,12.65
2023-04-20T12:02:27.504Z,13.93
2023-04-20T12:04:55.026Z,13.38
2023-04-20T12:07:22.693Z,6.72
2023-04-20T12:09:50.302Z,14.10
2023-04-20T12:12:17.481Z,13.73
2023-04-20T12:14:44.707Z,12.13
2023-04-20T12:17:12.008Z,12.52
2023-04-20T12:19:39.177Z,12.57
2023-04-20T12:22:06.338Z,14.00
2023-04-20T12:24:33.572Z,14.60
2023-04-20T12:27:00.785Z,13.05
2023-04-20T12:29:28.279Z,13.27
2023-04-20T12:31:55.816Z,13.10
2023-04-20T12:34:22.948Z,9.63
2023-04-20T12:36:50.152Z,13.23
2023-04-20T12:39:17.656Z,10.15
2023-04-20T12:41:44.935Z,11.73
2023-04-20T12:44:13.604Z,13.95
2023-04-20T12:46:41.117Z,12.93
2023-04-20T12:49:08.460Z,12.85
2023-04-20T12:51:35.608Z,12.65
2023-04-20T12:54:03.486Z,10.60
2023-04-20T12:56:31.005Z,9.15
2023-04-20T12:58:58.201Z,14.23
2023-04-20T13:01:25.787Z,13.48
2023-04-20T13:03:53.329Z,12.50
2023-04-20T13:06:20.610Z,10.68
2023-04-20T13:08:47.990Z,13.77
2023-04-20T13:11:16.302Z,13.90
2023-04-20T13:13:44.948Z,8.98
2023-04-20T13:16:12.207Z,13.60
2023-04-20T13:18:39.334Z,11.98
2023-04-20T13:21:06.542Z,11.93
2023-04-20T13:23:33.666Z,12.57
2023-04-20T13:26:01.901Z,11.85
2023-04-20T13:28:29.099Z,9.60
2023-04-20T13:30:57.700Z,7.88
2023-04-20T13:33:26.010Z,12.40
2023-04-20T13:35:53.206Z,11.18
2023-04-20T13:38:20.468Z,12.60
2023-04-20T13:40:48.543Z,9.45
2023-04-20T13:43:15.688Z,11.13
2023-04-20T13:45:42.966Z,10.68
2023-04-20T13:48:10.206Z,9.50
2023-04-20T13:50:37.385Z,12.00
2023-04-20T13:53:04.566Z,11.95
2023-04-20T13:55:32.176Z,11.18
2023-04-20T13:57:59.358Z,11.82
2023-04-20T14:00:26.706Z,12.23
2023-04-20T14:02:53.954Z,12.48
2023-04-20T14:05:21.209Z,12.70
2023-04-20T14:07:48.250Z,12.60
2023-04-20T14:10:15.483Z,11.52
2023-04-20T14:12:42.616Z,10.30
2023-04-20T14:15:10.153Z,11.80
2023-04-20T14:17:37.359Z,12.38
2023-04-20T14:20:05.490Z,11.10
2023-04-20T14:22:36.213Z,13.15
2023-04-20T14:25:06.998Z,12.73
2023-04-20T14:27:34.326Z,11.95
2023-04-20T14:30:01.665Z,12.23
2023-04-20T14:32:30.903Z,12.60
2023-04-20T14:34:58.057Z,12.07
2023-04-20T14:37:27.264Z,13.02
2023-04-20T14:39:54.537Z,9.65
2023-04-20T14:42:22.273Z,13.15
2023-04-20T14:44:50.103Z,12.35
2023-04-20T14:47:17.770Z,12.98
2023-04-20T14:49:45.030Z,10.38
2023-04-20T14:52:12.359Z,12.68
2023-04-20T14:54:39.525Z,12.00
2023-04-20T14:57:06.946Z,11.85
2023-04-20T14:59:34.153Z,11.52
2023-04-20T15:02:03.341Z,12.45
2023-04-20T15:04:31.059Z,12.15
2023-04-20T15:06:58.505Z,10.38
2023-04-20T15:09:26.158Z,7.60
2023-04-20T15:11:53.285Z,10.57
2023-04-20T15:14:21.365Z,11.25
2023-04-20T15:16:48.758Z,11.48
2023-04-20T15:19:16.029Z,11.63
2023-04-20T15:21:44.559Z,11.88
2023-04-20T15:24:12.089Z,11.10
2023-04-20T15:26:39.180Z,11.77
2023-04-20T15:29:06.627Z,12.93
2023-04-20T15:31:33.843Z,12.38
2023-04-20T15:34:01.579Z,5.55
2023-04-20T15:36:28.964Z,7.45
2023-04-20T15:38:57.884Z,8.05
2023-04-20T15:41:25.461Z,13.48
2023-04-20T15:43:52.595Z,11.60
2023-04-20T15:46:23.499Z,12.73
2023-04-20T15:48:50.746Z,13.68
2023-04-20T15:51:20.325Z,12.77
2023-04-20T15:53:50.919Z,10.98
2023-04-20T15:56:22.844Z,12.82
2023-04-20T15:58:51.060Z,12.32
2023-04-20T16:01:20.077Z,13.60
2023-04-20T16:03:48.677Z,13.20
2023-04-20T16:06:16.140Z,13.45
2023-04-20T16:08:43.447Z,12.90
2023-04-20T16:11:10.716Z,13.48
2023-04-20T16:13:38.314Z,12.55
2023-04-20T16:16:05.700Z,12.43
2023-04-20T16:18:33.239Z,12.02
2023-04-20T16:21:00.417Z,12.63
2023-04-20T16:23:28.400Z,12.35
2023-04-20T16:25:55.708Z,12.57
2023-04-20T16:28:23.078Z,10.95
2023-04-20T16:30:50.249Z,11.27
2023-04-20T16:33:17.872Z,8.80
2023-04-20T16:35:45.912Z,11.73
2023-04-20T16:38:13.097Z,8.55
2023-04-20T16:40:40.316Z,11.10
2023-04-20T16:43:07.562Z,11.02
2023-04-20T16:45:36.444Z,10.13
2023-04-20T16:48:04.305Z,10.02
2023-04-20T16:50:32.416Z,10.13
2023-04-20T16:52:59.667Z,7.90
2023-04-20T16:55:26.812Z,9.55
2023-04-20T16:58:00.003Z,8.98
2023-04-20T17:00:31.743Z,10.10
2023-04-20T17:03:03.042Z,8.27
2023-04-20T17:05:30.465Z,9.50
2023-04-20T17:07:57.598Z,9.38
2023-04-20T17:10:25.500Z,8.05
2023-04-20T17:12:52.782Z,8.77
2023-04-20T17:15:20.201Z,6.75
2023-04-20T17:17:47.610Z,8.75
2023-04-20T17:20:15.032Z,7.63
2023-04-20T17:22:42.647Z,8.05
2023-04-20T17:25:11.768Z,7.82
2023-04-20T17:27:38.978Z,6.70
2023-04-20T17:30:07.119Z,7.03
2023-04-20T17:32:34.353Z,7.80
2023-04-20T17:35:01.797Z,6.90
2023-04-20T17:37:32.052Z,7.30
2023-04-20T17:39:59.944Z,7.85
2023-04-20T17:42:27.321Z,7.50
2023-04-20T17:44:54.604Z,7.32
2023-04-20T17:47:21.957Z,7.53
2023-04-20T17:49:49.664Z,7.72
2023-04-20T17:52:19.775Z,7.53
2023-04-20T17:54:46.906Z,6.90
2023-04-20T17:57:14.498Z,7.20
2023-04-20T17:59:45.044Z,6.53
2023-04-20T18:02:13.484Z,7.35
2023-04-20T18:04:41.090Z,7.93
2023-04-20T18:07:08.642Z,7.43
2023-04-20T18:09:35.860Z,7.25
2023-04-20T18:12:03.022Z,6.45
2023-04-20T18:14:30.608Z,6.30
2023-04-20T18:16:57.989Z,6.00
2023-04-20T18:19:26.005Z,4.60
2023-04-20T18:21:54.252Z,4.18
2023-04-20T18:24:22.629Z,3.75
2023-04-20T18:26:50.400Z,3.90
2023-04-20T18:29:18.593Z,3.70
2023-04-20T18:31:46.883Z,3.63
2023-04-20T18:34:16.790Z,3.40
2023-04-20T18:36:44.445Z,3.80
2023-04-20T18:39:12.310Z,3.38
2023-04-20T18:41:41.798Z,3.70
2023-04-20T18:44:09.765Z,4.00
2023-04-20T18:46:39.034Z,3.92
2023-04-20T18:49:06.545Z,4.60
2023-04-20T18:51:35.903Z,5.00
2023-04-20T18:54:03.534Z,4.82
2023-04-20T18:56:32.323Z,5.05
2023-04-20T18:59:00.741Z,4.15
2023-04-20T19:01:28.866Z,4.53
2023-04-20T19:03:59.037Z,5.18
2023-04-20T19:06:28.598Z,4.20
2023-04-20T19:08:56.826Z,4.60
2023-04-20T19:11:31.868Z,4.30
2023-04-20T19:13:59.656Z,4.13
2023-04-20T19:16:31.977Z,4.00
2023-04-20T19:18:59.656Z,3.65
2023-04-20T19:21:28.323Z,4.10
2023-04-20T19:23:57.633Z,4.68
2023-04-20T19:26:27.350Z,5.20
2023-04-20T19:28:56.890Z,4.10
2023-04-20T19:31:24.418Z,4.07
2023-04-20T19:33:52.548Z,4.38
2023-04-20T19:36:23.543Z,4.15
2023-04-20T19:38:52.285Z,4.38
2023-04-20T19:41:20.465Z,4.45
2023-04-20T19:43:48.064Z,5.15
2023-04-20T19:46:16.954Z,5.00
2023-04-20T19:48:45.146Z,4.82
2023-04-20T19:51:12.821Z,5.38
2023-04-20T19:53:40.946Z,5.47
2023-04-20T19:56:09.965Z,4.70
2023-04-20T19:58:38.374Z,5.05
2023-04-20T20:01:05.950Z,5.03
2023-04-20T20:03:33.795Z,4.47
2023-04-20T20:06:01.770Z,4.60
2023-04-20T20:08:30.622Z,4.80
2023-04-20T20:10:57.943Z,4.93
2023-04-20T20:13:27.936Z,5.85
2023-04-20T20:15:55.483Z,4.93
2023-04-20T20:18:22.806Z,5.40
2023-04-20T20:20:51.906Z,4.88
2023-04-20T20:23:19.458Z,4.65
2023-04-20T20:25:47.084Z,4.43
2023-04-20T20:28:15.051Z,4.43
2023-04-20T20:30:45.534Z,4.60
2023-04-20T20:33:13.179Z,4.80
2023-04-20T20:35:41.079Z,5.68
2023-04-20T20:38:09.313Z,5.40
2023-04-20T20:40:39.973Z,5.68
2023-04-20T20:43:07.172Z,4.55
2023-04-20T20:45:34.680Z,4.97
2023-04-20T20:48:02.122Z,5.53
2023-04-20T20:50:29.454Z,4.70
2023-04-20T20:52:56.700Z,4.85
2023-04-20T20:55:23.961Z,5.78
2023-04-20T20:57:51.616Z,5.55
2023-04-20T21:00:19.183Z,5.03
2023-04-20T21:02:46.416Z,4.70
2023-04-20T21:05:13.693Z,4.65
2023-04-20T21:07:41.494Z,4.40
2023-04-20T21:10:09.285Z,4.22
2023-04-20T21:12:36.450Z,4.10
2023-04-20T21:15:03.798Z,4.47
2023-04-20T21:17:31.407Z,4.72
2023-04-20T21:19:58.614Z,4.53
2023-04-20T21:22:26.037Z,4.28
2023-04-20T21:24:53.145Z,4.50
2023-04-20T21:27:20.330Z,4.53
2023-04-20T21:29:47.474Z,4.05
2023-04-20T21:32:14.694Z,4.15
2023-04-20T21:34:43.219Z,3.63
2023-04-20T21:37:11.335Z,3.72
2023-04-20T21:39:38.569Z,4.40
2023-04-20T21:42:05.880Z,3.30
2023-04-20T21:44:33.115Z,3.38
2023-04-20T21:47:02.775Z,4.20
2023-04-20T21:49:30.288Z,3.60
2023-04-20T21:51:57.503Z,3.90
2023-04-20T21:54:24.669Z,3.05
2023-04-20T21:56:51.888Z,3.72
2023-04-20T21:59:19.238Z,3.40
2023-04-20T22:01:46.509Z,3.55
2023-04-20T22:04:14.131Z,3.25
2023-04-20T22:06:41.438Z,3.78
2023-04-20T22:09:08.726Z,3.80
2023-04-20T22:11:37.689Z,4.35
2023-04-20T22:14:04.982Z,3.65
2023-04-20T22:16:34.903Z,3.65
2023-04-20T22:19:02.271Z,3.40
2023-04-20T22:21:29.429Z,3.55
2023-04-20T22:23:56.704Z,4.32
2023-04-20T22:26:24.023Z,3.90
2023-04-20T22:28:51.320Z,4.30
2023-04-20T22:31:18.537Z,3.80
2023-04-20T22:33:45.704Z,3.97
2023-04-20T22:36:13.531Z,4.68
2023-04-20T22:38:40.710Z,4.30
2023-04-20T22:41:07.955Z,4.03
2023-04-20T22:43:35.066Z,4.50
2023-04-20T22:46:02.220Z,4.50
2023-04-20T22:48:29.397Z,4.47
2023-04-20T22:51:00.869Z,4.60
2023-04-20T22:53:30.307Z,5.10
2023-04-20T22:56:07.793Z,4.90
2023-04-20T22:58:35.298Z,4.82
2023-04-20T23:01:02.803Z,4.75
2023-04-20T23:03:30.262Z,5.43
2023-04-20T23:05:59.384Z,5.60
2023-04-20T23:08:28.552Z,5.90
2023-04-20T23:10:55.783Z,5.53
2023-04-20T23:13:26.517Z,5.47
2023-04-20T23:15:54.038Z,5.50
2023-04-20T23:18:21.187Z,5.25
2023-04-20T23:20:48.324Z,4.85
2023-04-20T23:23:15.517Z,5.22
2023-04-20T23:25:42.700Z,4.88
2023-04-20T23:28:09.934Z,4.72
2023-04-20T23:30:37.087Z,5.05
2023-04-20T23:33:04.367Z,5.22
2023-04-20T23:35:31.525Z,5.32
2023-04-20T23:37:58.649Z,5.85
2023-04-20T23:40:26.012Z,5.28
2023-04-20T23:42:53.366Z,5.93
2023-04-20T23:45:20.628Z,5.68
2023-04-20T23:47:48.049Z,5.72
2023-04-20T23:50:15.704Z,5.13
2023-04-20T23:52:42.855Z,5.68
2023-04-20T23:55:10.749Z,5.25
2023-04-20T23:57:37.954Z,5.50
